Atascosa, Texas
Current Conditions -  °F | °C
As of 1:55 AM on Friday 24 Oct 2014 (Local Time) from KCVB Reporting Station
Clear Clear  
Wind Chill: 17°   Ceiling: Unl
Heat Index: 17°   Visibility: 10mi
Dew Point: 12°   Wind: 0mph
Humidity: 70%   Direction: NA
Pressure: 30.14"   Gusts: NA
Location:  29.28°N, 98.74°W
Report Text: KCVB 240655Z AUTO 00000KT 10SM CLR 17/12 A3014 RMK AO2 T01710115
Loading
Personal Weather Stations






























Interactive Weather Map
Tropical Storm Tracking
New forecast layout! Learn more

10-Day Weather Forecast

Advertisements
Track Severe Weather on mobile